sensor_id;sensor_type;location;lat;lon;timestamp;P1;durP1;ratioP1;P2;durP2;ratioP2
80111;SDS011;69421;51.062;3.728;2024-01-11T00:16:34;13.75;;;9.57;;
80111;SDS011;69421;51.062;3.728;2024-01-11T00:19:00;19.20;;;10.65;;
80111;SDS011;69421;51.062;3.728;2024-01-11T00:21:25;19.08;;;11.88;;
80111;SDS011;69421;51.062;3.728;2024-01-11T00:23:50;20.50;;;10.77;;
80111;SDS011;69421;51.062;3.728;2024-01-11T00:26:16;21.47;;;11.07;;
80111;SDS011;69421;51.062;3.728;2024-01-11T00:28:41;19.47;;;10.63;;
80111;SDS011;69421;51.062;3.728;2024-01-11T00:31:06;18.90;;;10.73;;
80111;SDS011;69421;51.062;3.728;2024-01-11T00:33:32;22.10;;;11.30;;
80111;SDS011;69421;51.062;3.728;2024-01-11T00:35:58;21.73;;;13.07;;
80111;SDS011;69421;51.062;3.728;2024-01-11T00:38:23;15.07;;;9.93;;
80111;SDS011;69421;51.062;3.728;2024-01-11T00:40:49;25.17;;;12.57;;
80111;SDS011;69421;51.062;3.728;2024-01-11T00:43:14;19.70;;;10.40;;
80111;SDS011;69421;51.062;3.728;2024-01-11T00:45:40;18.03;;;9.77;;
80111;SDS011;69421;51.062;3.728;2024-01-11T00:48:05;21.92;;;11.55;;
80111;SDS011;69421;51.062;3.728;2024-01-11T00:50:31;24.58;;;10.82;;
80111;SDS011;69421;51.062;3.728;2024-01-11T00:52:56;18.50;;;11.45;;
80111;SDS011;69421;51.062;3.728;2024-01-11T01:04:31;15.00;;;9.33;;
80111;SDS011;69421;51.062;3.728;2024-01-11T01:06:56;24.02;;;11.45;;
80111;SDS011;69421;51.062;3.728;2024-01-11T01:09:22;16.40;;;9.45;;
80111;SDS011;69421;51.062;3.728;2024-01-11T01:11:47;19.38;;;10.38;;
80111;SDS011;69421;51.062;3.728;2024-01-11T01:14:13;17.50;;;10.05;;
80111;SDS011;69421;51.062;3.728;2024-01-11T01:23:03;15.48;;;10.25;;
80111;SDS011;69421;51.062;3.728;2024-01-11T01:25:29;15.98;;;9.63;;
80111;SDS011;69421;51.062;3.728;2024-01-11T01:27:54;16.35;;;12.60;;
80111;SDS011;69421;51.062;3.728;2024-01-11T01:30:20;17.45;;;10.98;;
80111;SDS011;69421;51.062;3.728;2024-01-11T01:32:45;21.58;;;11.45;;
80111;SDS011;69421;51.062;3.728;2024-01-11T01:35:11;16.77;;;10.33;;
80111;SDS011;69421;51.062;3.728;2024-01-11T01:37:36;20.83;;;11.50;;
80111;SDS011;69421;51.062;3.728;2024-01-11T01:40:02;15.97;;;9.73;;
80111;SDS011;69421;51.062;3.728;2024-01-11T01:42:28;18.63;;;11.55;;
80111;SDS011;69421;51.062;3.728;2024-01-11T01:44:53;20.97;;;10.63;;
80111;SDS011;69421;51.062;3.728;2024-01-11T01:47:19;16.13;;;10.67;;
80111;SDS011;69421;51.062;3.728;2024-01-11T01:49:44;18.20;;;11.32;;
80111;SDS011;69421;51.062;3.728;2024-01-11T01:52:10;17.30;;;10.32;;
80111;SDS011;69421;51.062;3.728;2024-01-11T01:54:36;19.80;;;11.65;;
80111;SDS011;69421;51.062;3.728;2024-01-11T01:57:02;17.88;;;9.65;;
80111;SDS011;69421;51.062;3.728;2024-01-11T01:59:28;18.20;;;12.15;;
80111;SDS011;69421;51.062;3.728;2024-01-11T02:01:54;18.23;;;11.68;;
80111;SDS011;69421;51.062;3.728;2024-01-11T02:04:20;17.67;;;11.60;;
80111;SDS011;69421;51.062;3.728;2024-01-11T02:06:47;17.90;;;10.27;;
80111;SDS011;69421;51.062;3.728;2024-01-11T02:09:13;18.17;;;10.98;;
80111;SDS011;69421;51.062;3.728;2024-01-11T02:11:38;20.80;;;11.00;;
80111;SDS011;69421;51.062;3.728;2024-01-11T02:14:04;22.05;;;10.90;;
80111;SDS011;69421;51.062;3.728;2024-01-11T02:16:29;22.13;;;11.17;;
80111;SDS011;69421;51.062;3.728;2024-01-11T02:18:55;19.37;;;10.60;;
80111;SDS011;69421;51.062;3.728;2024-01-11T02:21:20;17.03;;;10.30;;
80111;SDS011;69421;51.062;3.728;2024-01-11T02:26:29;18.55;;;11.15;;
80111;SDS011;69421;51.062;3.728;2024-01-11T02:28:54;14.27;;;10.00;;
80111;SDS011;69421;51.062;3.728;2024-01-11T02:31:20;16.05;;;10.25;;
80111;SDS011;69421;51.062;3.728;2024-01-11T02:33:45;18.67;;;11.73;;
80111;SDS011;69421;51.062;3.728;2024-01-11T02:36:10;23.02;;;11.18;;
80111;SDS011;69421;51.062;3.728;2024-01-11T02:38:36;20.48;;;11.40;;
80111;SDS011;69421;51.062;3.728;2024-01-11T02:41:02;18.90;;;10.68;;
80111;SDS011;69421;51.062;3.728;2024-01-11T02:43:28;19.05;;;11.55;;
80111;SDS011;69421;51.062;3.728;2024-01-11T02:45:56;17.90;;;9.43;;
80111;SDS011;69421;51.062;3.728;2024-01-11T02:48:26;18.27;;;11.20;;
80111;SDS011;69421;51.062;3.728;2024-01-11T02:50:52;15.27;;;10.27;;
80111;SDS011;69421;51.062;3.728;2024-01-11T02:53:18;23.57;;;11.63;;
80111;SDS011;69421;51.062;3.728;2024-01-11T02:55:43;19.83;;;10.90;;
80111;SDS011;69421;51.062;3.728;2024-01-11T02:58:09;19.70;;;10.57;;
80111;SDS011;69421;51.062;3.728;2024-01-11T03:00:34;19.50;;;11.80;;
80111;SDS011;69421;51.062;3.728;2024-01-11T03:02:59;17.77;;;11.30;;
80111;SDS011;69421;51.062;3.728;2024-01-11T03:05:25;17.70;;;10.55;;
80111;SDS011;69421;51.062;3.728;2024-01-11T03:07:51;18.30;;;11.60;;
80111;SDS011;69421;51.062;3.728;2024-01-11T03:10:16;19.27;;;11.80;;
80111;SDS011;69421;51.062;3.728;2024-01-11T03:12:41;20.03;;;10.77;;
80111;SDS011;69421;51.062;3.728;2024-01-11T03:15:07;20.27;;;10.50;;
80111;SDS011;69421;51.062;3.728;2024-01-11T03:17:33;19.08;;;12.15;;
80111;SDS011;69421;51.062;3.728;2024-01-11T03:19:59;17.73;;;11.60;;
80111;SDS011;69421;51.062;3.728;2024-01-11T03:22:24;22.50;;;12.23;;
80111;SDS011;69421;51.062;3.728;2024-01-11T03:24:50;19.25;;;10.63;;
80111;SDS011;69421;51.062;3.728;2024-01-11T03:27:15;19.30;;;12.27;;
80111;SDS011;69421;51.062;3.728;2024-01-11T03:29:41;17.47;;;9.97;;
80111;SDS011;69421;51.062;3.728;2024-01-11T03:32:06;19.20;;;11.98;;
80111;SDS011;69421;51.062;3.728;2024-01-11T03:34:32;23.47;;;11.63;;
80111;SDS011;69421;51.062;3.728;2024-01-11T03:36:57;19.23;;;11.80;;
80111;SDS011;69421;51.062;3.728;2024-01-11T03:39:23;18.47;;;11.17;;
80111;SDS011;69421;51.062;3.728;2024-01-11T03:41:49;22.27;;;12.57;;
80111;SDS011;69421;51.062;3.728;2024-01-11T03:44:15;15.93;;;10.83;;
80111;SDS011;69421;51.062;3.728;2024-01-11T03:46:40;22.10;;;13.00;;
80111;SDS011;69421;51.062;3.728;2024-01-11T03:49:06;20.45;;;11.40;;
80111;SDS011;69421;51.062;3.728;2024-01-11T03:51:32;21.95;;;11.45;;
80111;SDS011;69421;51.062;3.728;2024-01-11T03:53:58;21.42;;;12.10;;
80111;SDS011;69421;51.062;3.728;2024-01-11T03:56:24;22.03;;;12.20;;
80111;SDS011;69421;51.062;3.728;2024-01-11T03:58:49;25.17;;;12.93;;
80111;SDS011;69421;51.062;3.728;2024-01-11T04:01:14;23.00;;;12.87;;
80111;SDS011;69421;51.062;3.728;2024-01-11T04:03:41;18.38;;;11.65;;
80111;SDS011;69421;51.062;3.728;2024-01-11T04:06:06;16.40;;;10.07;;
80111;SDS011;69421;51.062;3.728;2024-01-11T04:08:32;17.92;;;11.25;;
80111;SDS011;69421;51.062;3.728;2024-01-11T04:10:57;21.83;;;12.18;;
80111;SDS011;69421;51.062;3.728;2024-01-11T04:13:23;20.63;;;12.13;;
80111;SDS011;69421;51.062;3.728;2024-01-11T04:15:49;21.15;;;12.25;;
80111;SDS011;69421;51.062;3.728;2024-01-11T04:18:14;21.08;;;12.48;;
80111;SDS011;69421;51.062;3.728;2024-01-11T04:20:40;23.20;;;12.53;;
80111;SDS011;69421;51.062;3.728;2024-01-11T04:23:05;21.97;;;11.73;;
80111;SDS011;69421;51.062;3.728;2024-01-11T04:25:31;19.83;;;11.17;;
80111;SDS011;69421;51.062;3.728;2024-01-11T04:27:56;22.37;;;13.87;;
80111;SDS011;69421;51.062;3.728;2024-01-11T04:30:21;21.65;;;13.40;;
80111;SDS011;69421;51.062;3.728;2024-01-11T04:32:47;25.50;;;12.17;;
80111;SDS011;69421;51.062;3.728;2024-01-11T04:35:12;24.53;;;13.80;;
80111;SDS011;69421;51.062;3.728;2024-01-11T04:37:38;21.70;;;12.47;;
80111;SDS011;69421;51.062;3.728;2024-01-11T04:40:03;25.75;;;13.93;;
80111;SDS011;69421;51.062;3.728;2024-01-11T04:42:29;25.73;;;13.88;;
80111;SDS011;69421;51.062;3.728;2024-01-11T04:44:55;28.02;;;12.40;;
80111;SDS011;69421;51.062;3.728;2024-01-11T04:47:20;22.73;;;12.23;;
80111;SDS011;69421;51.062;3.728;2024-01-11T04:49:45;24.40;;;14.03;;
80111;SDS011;69421;51.062;3.728;2024-01-11T04:52:11;24.63;;;14.00;;
80111;SDS011;69421;51.062;3.728;2024-01-11T04:54:36;21.53;;;14.07;;
80111;SDS011;69421;51.062;3.728;2024-01-11T04:57:02;24.30;;;14.25;;
80111;SDS011;69421;51.062;3.728;2024-01-11T04:59:28;22.38;;;12.90;;
80111;SDS011;69421;51.062;3.728;2024-01-11T05:01:53;23.83;;;13.87;;
80111;SDS011;69421;51.062;3.728;2024-01-11T05:04:19;20.17;;;14.00;;
80111;SDS011;69421;51.062;3.728;2024-01-11T05:06:44;24.73;;;13.47;;
80111;SDS011;69421;51.062;3.728;2024-01-11T05:09:10;22.03;;;12.80;;
80111;SDS011;69421;51.062;3.728;2024-01-11T05:11:35;21.93;;;13.17;;
80111;SDS011;69421;51.062;3.728;2024-01-11T05:14:01;19.17;;;11.27;;
80111;SDS011;69421;51.062;3.728;2024-01-11T05:16:27;21.38;;;14.38;;
80111;SDS011;69421;51.062;3.728;2024-01-11T05:18:53;19.88;;;12.13;;
80111;SDS011;69421;51.062;3.728;2024-01-11T05:21:20;23.15;;;11.90;;
80111;SDS011;69421;51.062;3.728;2024-01-11T05:23:46;21.70;;;14.70;;
80111;SDS011;69421;51.062;3.728;2024-01-11T05:26:12;24.58;;;13.40;;
80111;SDS011;69421;51.062;3.728;2024-01-11T05:28:40;22.27;;;12.35;;
80111;SDS011;69421;51.062;3.728;2024-01-11T05:31:07;25.38;;;12.65;;
80111;SDS011;69421;51.062;3.728;2024-01-11T05:33:33;22.75;;;12.70;;
80111;SDS011;69421;51.062;3.728;2024-01-11T05:35:58;20.52;;;11.93;;
80111;SDS011;69421;51.062;3.728;2024-01-11T05:38:24;18.70;;;10.30;;
80111;SDS011;69421;51.062;3.728;2024-01-11T05:40:49;23.40;;;13.53;;
80111;SDS011;69421;51.062;3.728;2024-01-11T05:43:15;28.60;;;17.17;;
80111;SDS011;69421;51.062;3.728;2024-01-11T05:45:40;22.40;;;12.80;;
80111;SDS011;69421;51.062;3.728;2024-01-11T05:48:05;26.07;;;12.07;;
80111;SDS011;69421;51.062;3.728;2024-01-11T05:50:31;22.90;;;13.20;;
80111;SDS011;69421;51.062;3.728;2024-01-11T05:52:56;18.00;;;11.27;;
80111;SDS011;69421;51.062;3.728;2024-01-11T05:55:22;22.37;;;12.23;;
80111;SDS011;69421;51.062;3.728;2024-01-11T05:57:48;17.73;;;12.10;;
80111;SDS011;69421;51.062;3.728;2024-01-11T06:00:13;19.42;;;11.82;;
80111;SDS011;69421;51.062;3.728;2024-01-11T06:02:39;22.23;;;13.07;;
80111;SDS011;69421;51.062;3.728;2024-01-11T06:05:07;22.35;;;12.52;;
80111;SDS011;69421;51.062;3.728;2024-01-11T06:07:33;27.15;;;16.23;;
80111;SDS011;69421;51.062;3.728;2024-01-11T06:09:58;25.47;;;13.60;;
80111;SDS011;69421;51.062;3.728;2024-01-11T06:12:26;27.38;;;12.27;;
80111;SDS011;69421;51.062;3.728;2024-01-11T06:14:51;20.17;;;12.07;;
80111;SDS011;69421;51.062;3.728;2024-01-11T06:17:17;22.92;;;14.10;;
80111;SDS011;69421;51.062;3.728;2024-01-11T06:19:42;18.53;;;11.50;;
80111;SDS011;69421;51.062;3.728;2024-01-11T06:22:07;18.10;;;12.47;;
80111;SDS011;69421;51.062;3.728;2024-01-11T06:24:33;19.88;;;12.23;;
80111;SDS011;69421;51.062;3.728;2024-01-11T06:26:58;19.02;;;10.85;;
80111;SDS011;69421;51.062;3.728;2024-01-11T06:29:24;19.60;;;11.48;;
80111;SDS011;69421;51.062;3.728;2024-01-11T06:31:49;18.63;;;11.33;;
80111;SDS011;69421;51.062;3.728;2024-01-11T06:34:15;22.80;;;13.10;;
80111;SDS011;69421;51.062;3.728;2024-01-11T06:36:40;20.90;;;11.97;;
80111;SDS011;69421;51.062;3.728;2024-01-11T06:39:05;20.67;;;12.70;;
80111;SDS011;69421;51.062;3.728;2024-01-11T06:41:31;21.23;;;10.93;;
80111;SDS011;69421;51.062;3.728;2024-01-11T06:43:56;19.40;;;11.97;;
80111;SDS011;69421;51.062;3.728;2024-01-11T06:46:22;23.70;;;12.17;;
80111;SDS011;69421;51.062;3.728;2024-01-11T06:48:48;20.38;;;12.35;;
80111;SDS011;69421;51.062;3.728;2024-01-11T06:51:20;22.23;;;14.00;;
80111;SDS011;69421;51.062;3.728;2024-01-11T06:53:46;19.13;;;11.85;;
80111;SDS011;69421;51.062;3.728;2024-01-11T06:56:18;19.48;;;10.88;;
80111;SDS011;69421;51.062;3.728;2024-01-11T06:58:45;15.00;;;10.32;;
80111;SDS011;69421;51.062;3.728;2024-01-11T07:01:11;22.90;;;11.40;;
80111;SDS011;69421;51.062;3.728;2024-01-11T07:03:36;23.42;;;12.65;;
80111;SDS011;69421;51.062;3.728;2024-01-11T07:06:02;21.70;;;11.18;;
80111;SDS011;69421;51.062;3.728;2024-01-11T07:08:28;23.92;;;12.90;;
80111;SDS011;69421;51.062;3.728;2024-01-11T07:10:54;23.40;;;12.52;;
80111;SDS011;69421;51.062;3.728;2024-01-11T07:13:19;22.63;;;11.37;;
80111;SDS011;69421;51.062;3.728;2024-01-11T07:15:45;20.00;;;11.15;;
80111;SDS011;69421;51.062;3.728;2024-01-11T07:18:12;24.95;;;13.52;;
80111;SDS011;69421;51.062;3.728;2024-01-11T07:20:37;22.33;;;12.43;;
80111;SDS011;69421;51.062;3.728;2024-01-11T07:23:03;19.45;;;12.10;;
80111;SDS011;69421;51.062;3.728;2024-01-11T07:25:29;24.23;;;12.43;;
80111;SDS011;69421;51.062;3.728;2024-01-11T07:27:55;20.60;;;11.45;;
80111;SDS011;69421;51.062;3.728;2024-01-11T07:30:20;20.38;;;10.93;;
80111;SDS011;69421;51.062;3.728;2024-01-11T07:32:46;17.90;;;10.85;;
80111;SDS011;69421;51.062;3.728;2024-01-11T07:35:11;21.08;;;12.20;;
80111;SDS011;69421;51.062;3.728;2024-01-11T07:37:38;19.58;;;13.05;;
80111;SDS011;69421;51.062;3.728;2024-01-11T07:40:04;18.92;;;11.35;;
80111;SDS011;69421;51.062;3.728;2024-01-11T07:42:37;18.60;;;12.40;;
80111;SDS011;69421;51.062;3.728;2024-01-11T07:45:04;26.98;;;13.00;;
80111;SDS011;69421;51.062;3.728;2024-01-11T07:47:30;25.52;;;14.90;;
80111;SDS011;69421;51.062;3.728;2024-01-11T07:49:56;15.73;;;11.57;;
80111;SDS011;69421;51.062;3.728;2024-01-11T07:52:21;23.33;;;12.23;;
80111;SDS011;69421;51.062;3.728;2024-01-11T07:54:46;19.67;;;12.63;;
80111;SDS011;69421;51.062;3.728;2024-01-11T07:57:12;20.73;;;10.87;;
80111;SDS011;69421;51.062;3.728;2024-01-11T07:59:37;24.77;;;13.27;;
80111;SDS011;69421;51.062;3.728;2024-01-11T08:02:03;20.27;;;12.88;;
80111;SDS011;69421;51.062;3.728;2024-01-11T08:04:28;22.40;;;12.00;;
80111;SDS011;69421;51.062;3.728;2024-01-11T08:06:54;25.75;;;12.35;;
80111;SDS011;69421;51.062;3.728;2024-01-11T08:09:19;19.15;;;11.50;;
80111;SDS011;69421;51.062;3.728;2024-01-11T08:11:45;19.80;;;12.13;;
80111;SDS011;69421;51.062;3.728;2024-01-11T08:14:11;17.65;;;10.77;;
80111;SDS011;69421;51.062;3.728;2024-01-11T08:16:36;21.42;;;12.23;;
80111;SDS011;69421;51.062;3.728;2024-01-11T08:19:02;24.67;;;13.95;;
80111;SDS011;69421;51.062;3.728;2024-01-11T08:21:28;21.55;;;11.20;;
80111;SDS011;69421;51.062;3.728;2024-01-11T08:23:54;22.42;;;14.80;;
80111;SDS011;69421;51.062;3.728;2024-01-11T08:26:20;24.08;;;13.35;;
80111;SDS011;69421;51.062;3.728;2024-01-11T08:28:46;23.55;;;14.05;;
80111;SDS011;69421;51.062;3.728;2024-01-11T08:31:12;22.42;;;12.82;;
80111;SDS011;69421;51.062;3.728;2024-01-11T08:33:37;21.65;;;12.30;;
80111;SDS011;69421;51.062;3.728;2024-01-11T08:36:06;17.48;;;11.13;;
80111;SDS011;69421;51.062;3.728;2024-01-11T08:38:31;21.98;;;13.60;;
80111;SDS011;69421;51.062;3.728;2024-01-11T08:40:57;22.08;;;13.50;;
80111;SDS011;69421;51.062;3.728;2024-01-11T08:43:24;25.23;;;13.13;;
80111;SDS011;69421;51.062;3.728;2024-01-11T08:45:50;23.52;;;15.00;;
80111;SDS011;69421;51.062;3.728;2024-01-11T08:48:15;22.33;;;12.43;;
80111;SDS011;69421;51.062;3.728;2024-01-11T08:50:41;24.23;;;14.33;;
80111;SDS011;69421;51.062;3.728;2024-01-11T08:53:06;24.17;;;11.73;;
80111;SDS011;69421;51.062;3.728;2024-01-11T08:55:31;20.45;;;11.40;;
80111;SDS011;69421;51.062;3.728;2024-01-11T08:57:57;17.13;;;10.50;;
80111;SDS011;69421;51.062;3.728;2024-01-11T09:00:23;19.58;;;11.95;;
80111;SDS011;69421;51.062;3.728;2024-01-11T09:02:48;19.17;;;12.67;;
80111;SDS011;69421;51.062;3.728;2024-01-11T09:05:14;20.38;;;12.13;;
80111;SDS011;69421;51.062;3.728;2024-01-11T09:07:40;21.23;;;10.82;;
80111;SDS011;69421;51.062;3.728;2024-01-11T09:10:06;22.35;;;13.48;;
80111;SDS011;69421;51.062;3.728;2024-01-11T09:12:33;22.45;;;12.32;;
80111;SDS011;69421;51.062;3.728;2024-01-11T09:14:59;19.25;;;13.63;;
80111;SDS011;69421;51.062;3.728;2024-01-11T09:17:25;21.73;;;11.93;;
80111;SDS011;69421;51.062;3.728;2024-01-11T09:19:50;19.13;;;10.97;;
80111;SDS011;69421;51.062;3.728;2024-01-11T09:22:16;21.92;;;12.35;;
80111;SDS011;69421;51.062;3.728;2024-01-11T09:24:42;22.38;;;13.00;;
80111;SDS011;69421;51.062;3.728;2024-01-11T09:27:07;20.75;;;12.27;;
80111;SDS011;69421;51.062;3.728;2024-01-11T09:29:33;25.42;;;13.13;;
80111;SDS011;69421;51.062;3.728;2024-01-11T09:31:58;16.67;;;11.80;;
80111;SDS011;69421;51.062;3.728;2024-01-11T09:34:24;25.48;;;14.05;;
80111;SDS011;69421;51.062;3.728;2024-01-11T09:36:50;28.23;;;13.80;;
80111;SDS011;69421;51.062;3.728;2024-01-11T09:39:15;24.95;;;14.38;;
80111;SDS011;69421;51.062;3.728;2024-01-11T09:41:42;25.23;;;12.88;;
80111;SDS011;69421;51.062;3.728;2024-01-11T09:44:09;19.52;;;12.63;;
80111;SDS011;69421;51.062;3.728;2024-01-11T09:46:35;18.40;;;11.93;;
80111;SDS011;69421;51.062;3.728;2024-01-11T09:49:00;24.23;;;12.75;;
80111;SDS011;69421;51.062;3.728;2024-01-11T09:51:28;22.77;;;12.70;;
80111;SDS011;69421;51.062;3.728;2024-01-11T09:53:54;22.15;;;12.20;;
80111;SDS011;69421;51.062;3.728;2024-01-11T09:56:21;20.58;;;14.13;;
80111;SDS011;69421;51.062;3.728;2024-01-11T09:58:49;26.17;;;13.43;;
80111;SDS011;69421;51.062;3.728;2024-01-11T10:01:15;27.70;;;13.27;;
80111;SDS011;69421;51.062;3.728;2024-01-11T10:03:41;24.55;;;13.95;;
80111;SDS011;69421;51.062;3.728;2024-01-11T10:06:07;24.83;;;13.82;;
80111;SDS011;69421;51.062;3.728;2024-01-11T10:08:34;22.90;;;12.63;;
80111;SDS011;69421;51.062;3.728;2024-01-11T10:11:00;23.60;;;13.98;;
80111;SDS011;69421;51.062;3.728;2024-01-11T10:13:29;28.30;;;13.93;;
80111;SDS011;69421;51.062;3.728;2024-01-11T10:16:05;22.35;;;14.07;;
80111;SDS011;69421;51.062;3.728;2024-01-11T10:18:31;29.75;;;16.05;;
80111;SDS011;69421;51.062;3.728;2024-01-11T10:20:57;28.10;;;15.70;;
80111;SDS011;69421;51.062;3.728;2024-01-11T10:23:22;30.15;;;18.08;;
80111;SDS011;69421;51.062;3.728;2024-01-11T10:25:48;33.13;;;16.17;;
80111;SDS011;69421;51.062;3.728;2024-01-11T10:28:13;30.67;;;13.57;;
80111;SDS011;69421;51.062;3.728;2024-01-11T10:30:39;29.45;;;17.88;;
80111;SDS011;69421;51.062;3.728;2024-01-11T10:33:06;32.33;;;16.50;;
80111;SDS011;69421;51.062;3.728;2024-01-11T10:35:32;27.80;;;15.10;;
80111;SDS011;69421;51.062;3.728;2024-01-11T10:37:59;34.15;;;15.20;;
80111;SDS011;69421;51.062;3.728;2024-01-11T10:40:24;25.77;;;15.25;;
80111;SDS011;69421;51.062;3.728;2024-01-11T10:42:50;34.40;;;15.90;;
80111;SDS011;69421;51.062;3.728;2024-01-11T10:45:17;33.85;;;16.00;;
80111;SDS011;69421;51.062;3.728;2024-01-11T10:47:47;29.30;;;15.73;;
80111;SDS011;69421;51.062;3.728;2024-01-11T10:50:17;38.55;;;19.23;;
80111;SDS011;69421;51.062;3.728;2024-01-11T10:52:47;29.73;;;15.57;;
80111;SDS011;69421;51.062;3.728;2024-01-11T10:55:35;27.52;;;16.23;;
80111;SDS011;69421;51.062;3.728;2024-01-11T10:58:01;33.70;;;16.95;;
80111;SDS011;69421;51.062;3.728;2024-01-11T11:00:28;36.85;;;20.80;;
80111;SDS011;69421;51.062;3.728;2024-01-11T11:02:54;34.47;;;18.00;;
80111;SDS011;69421;51.062;3.728;2024-01-11T11:05:20;32.80;;;16.75;;
80111;SDS011;69421;51.062;3.728;2024-01-11T11:07:49;31.23;;;16.67;;
80111;SDS011;69421;51.062;3.728;2024-01-11T11:10:15;29.95;;;19.52;;
80111;SDS011;69421;51.062;3.728;2024-01-11T11:12:42;31.83;;;16.67;;
80111;SDS011;69421;51.062;3.728;2024-01-11T11:15:11;29.92;;;15.38;;
80111;SDS011;69421;51.062;3.728;2024-01-11T11:17:38;28.88;;;16.17;;
80111;SDS011;69421;51.062;3.728;2024-01-11T11:20:05;31.52;;;16.23;;
80111;SDS011;69421;51.062;3.728;2024-01-11T11:22:34;30.63;;;14.90;;
80111;SDS011;69421;51.062;3.728;2024-01-11T11:25:04;28.13;;;15.18;;
80111;SDS011;69421;51.062;3.728;2024-01-11T11:27:50;29.42;;;14.68;;
80111;SDS011;69421;51.062;3.728;2024-01-11T11:30:18;27.13;;;15.20;;
80111;SDS011;69421;51.062;3.728;2024-01-11T11:32:45;26.58;;;15.23;;
80111;SDS011;69421;51.062;3.728;2024-01-11T11:35:10;23.25;;;13.50;;
80111;SDS011;69421;51.062;3.728;2024-01-11T11:37:37;27.17;;;14.65;;
80111;SDS011;69421;51.062;3.728;2024-01-11T11:40:03;24.83;;;13.75;;
80111;SDS011;69421;51.062;3.728;2024-01-11T11:42:38;27.50;;;13.75;;
80111;SDS011;69421;51.062;3.728;2024-01-11T11:45:05;24.13;;;13.90;;
80111;SDS011;69421;51.062;3.728;2024-01-11T11:47:33;28.42;;;15.93;;
80111;SDS011;69421;51.062;3.728;2024-01-11T11:50:03;30.88;;;15.10;;
80111;SDS011;69421;51.062;3.728;2024-01-11T11:52:30;21.45;;;13.55;;
80111;SDS011;69421;51.062;3.728;2024-01-11T11:55:00;21.52;;;13.57;;
80111;SDS011;69421;51.062;3.728;2024-01-11T11:57:27;23.60;;;16.17;;
80111;SDS011;69421;51.062;3.728;2024-01-11T11:59:54;24.65;;;14.50;;
80111;SDS011;69421;51.062;3.728;2024-01-11T12:02:21;28.13;;;15.05;;
80111;SDS011;69421;51.062;3.728;2024-01-11T12:04:48;20.92;;;13.63;;
80111;SDS011;69421;51.062;3.728;2024-01-11T12:07:14;23.05;;;13.48;;
80111;SDS011;69421;51.062;3.728;2024-01-11T12:09:40;23.80;;;13.30;;
80111;SDS011;69421;51.062;3.728;2024-01-11T12:12:06;27.08;;;14.65;;
80111;SDS011;69421;51.062;3.728;2024-01-11T12:14:31;25.77;;;14.23;;
80111;SDS011;69421;51.062;3.728;2024-01-11T12:16:57;25.70;;;14.18;;
80111;SDS011;69421;51.062;3.728;2024-01-11T12:19:23;22.13;;;12.43;;
80111;SDS011;69421;51.062;3.728;2024-01-11T12:21:49;19.88;;;12.32;;
80111;SDS011;69421;51.062;3.728;2024-01-11T12:24:18;27.50;;;12.93;;
80111;SDS011;69421;51.062;3.728;2024-01-11T12:26:44;22.50;;;13.45;;
80111;SDS011;69421;51.062;3.728;2024-01-11T12:29:11;25.70;;;14.77;;
80111;SDS011;69421;51.062;3.728;2024-01-11T12:31:36;22.85;;;14.23;;
80111;SDS011;69421;51.062;3.728;2024-01-11T12:34:02;29.23;;;14.77;;
80111;SDS011;69421;51.062;3.728;2024-01-11T12:36:28;25.08;;;15.73;;
80111;SDS011;69421;51.062;3.728;2024-01-11T12:38:54;27.52;;;15.05;;
80111;SDS011;69421;51.062;3.728;2024-01-11T12:41:22;24.13;;;14.13;;
80111;SDS011;69421;51.062;3.728;2024-01-11T12:43:48;24.02;;;14.45;;
80111;SDS011;69421;51.062;3.728;2024-01-11T12:46:14;22.85;;;13.38;;
80111;SDS011;69421;51.062;3.728;2024-01-11T12:48:39;25.67;;;14.38;;
80111;SDS011;69421;51.062;3.728;2024-01-11T12:51:05;19.77;;;14.65;;
80111;SDS011;69421;51.062;3.728;2024-01-11T12:53:30;21.30;;;12.75;;
80111;SDS011;69421;51.062;3.728;2024-01-11T12:56:03;19.02;;;12.25;;
80111;SDS011;69421;51.062;3.728;2024-01-11T12:58:33;20.98;;;13.98;;
80111;SDS011;69421;51.062;3.728;2024-01-11T13:00:58;23.70;;;12.25;;
80111;SDS011;69421;51.062;3.728;2024-01-11T13:03:27;26.77;;;13.25;;
80111;SDS011;69421;51.062;3.728;2024-01-11T13:05:52;21.02;;;13.73;;
80111;SDS011;69421;51.062;3.728;2024-01-11T13:08:18;22.02;;;12.02;;
80111;SDS011;69421;51.062;3.728;2024-01-11T13:10:43;35.07;;;17.93;;
80111;SDS011;69421;51.062;3.728;2024-01-11T13:13:08;26.17;;;13.73;;
80111;SDS011;69421;51.062;3.728;2024-01-11T13:15:35;23.42;;;12.93;;
80111;SDS011;69421;51.062;3.728;2024-01-11T13:18:04;22.50;;;13.60;;
80111;SDS011;69421;51.062;3.728;2024-01-11T13:20:32;20.75;;;12.32;;
80111;SDS011;69421;51.062;3.728;2024-01-11T13:23:16;23.23;;;14.38;;
80111;SDS011;69421;51.062;3.728;2024-01-11T13:25:45;20.80;;;12.38;;
80111;SDS011;69421;51.062;3.728;2024-01-11T13:28:11;22.30;;;13.38;;
80111;SDS011;69421;51.062;3.728;2024-01-11T13:30:37;26.50;;;14.40;;
80111;SDS011;69421;51.062;3.728;2024-01-11T13:33:04;29.77;;;15.10;;
80111;SDS011;69421;51.062;3.728;2024-01-11T13:35:30;16.85;;;10.88;;
80111;SDS011;69421;51.062;3.728;2024-01-11T13:37:55;25.70;;;12.00;;
80111;SDS011;69421;51.062;3.728;2024-01-11T13:40:21;19.23;;;10.60;;
80111;SDS011;69421;51.062;3.728;2024-01-11T13:42:46;23.00;;;12.38;;
80111;SDS011;69421;51.062;3.728;2024-01-11T13:45:11;18.40;;;10.17;;
80111;SDS011;69421;51.062;3.728;2024-01-11T13:47:37;19.77;;;10.75;;
80111;SDS011;69421;51.062;3.728;2024-01-11T13:50:03;24.02;;;11.57;;
80111;SDS011;69421;51.062;3.728;2024-01-11T13:52:29;19.15;;;11.40;;
80111;SDS011;69421;51.062;3.728;2024-01-11T13:54:54;21.30;;;12.13;;
80111;SDS011;69421;51.062;3.728;2024-01-11T13:57:20;19.17;;;12.13;;
80111;SDS011;69421;51.062;3.728;2024-01-11T13:59:46;19.73;;;11.48;;
80111;SDS011;69421;51.062;3.728;2024-01-11T14:02:11;17.77;;;11.93;;
80111;SDS011;69421;51.062;3.728;2024-01-11T14:04:37;20.10;;;12.40;;
80111;SDS011;69421;51.062;3.728;2024-01-11T14:07:03;23.95;;;14.15;;
80111;SDS011;69421;51.062;3.728;2024-01-11T14:09:28;21.40;;;12.70;;
80111;SDS011;69421;51.062;3.728;2024-01-11T14:11:54;21.88;;;13.13;;
80111;SDS011;69421;51.062;3.728;2024-01-11T14:14:20;29.60;;;16.02;;
80111;SDS011;69421;51.062;3.728;2024-01-11T14:16:45;23.40;;;14.27;;
80111;SDS011;69421;51.062;3.728;2024-01-11T14:19:11;24.13;;;14.25;;
80111;SDS011;69421;51.062;3.728;2024-01-11T14:21:37;23.42;;;13.75;;
80111;SDS011;69421;51.062;3.728;2024-01-11T14:24:03;26.60;;;15.43;;
80111;SDS011;69421;51.062;3.728;2024-01-11T14:26:30;27.92;;;15.40;;
80111;SDS011;69421;51.062;3.728;2024-01-11T14:28:56;24.48;;;13.75;;
80111;SDS011;69421;51.062;3.728;2024-01-11T14:31:21;27.10;;;14.50;;
80111;SDS011;69421;51.062;3.728;2024-01-11T14:33:47;23.83;;;13.60;;
80111;SDS011;69421;51.062;3.728;2024-01-11T14:36:13;20.88;;;11.32;;
80111;SDS011;69421;51.062;3.728;2024-01-11T14:38:39;19.60;;;10.38;;
80111;SDS011;69421;51.062;3.728;2024-01-11T14:41:06;16.50;;;10.18;;
80111;SDS011;69421;51.062;3.728;2024-01-11T14:43:31;16.95;;;10.52;;
80111;SDS011;69421;51.062;3.728;2024-01-11T14:45:57;20.50;;;10.88;;
80111;SDS011;69421;51.062;3.728;2024-01-11T14:48:23;16.88;;;10.73;;